Nearby METAR Reports

 

KDFW - Dallas/Ft Worth, Texas, USA
Distance from station: SSE 10mi, 16km
Updated: Tue, 20-Oct-2020 11:53am CDT
Partly cloudy
Partly cloudy
 Wind from S
Wind: S 17 mph , 28 km/h
Temperature: 82°F , 28°C
Heat Index: 86°F , 30°C
Dew Point: 70°F , 21°C
Humidity: 66%
Barometer: 29.99 inHg , 1015.6 hPa
Clouds: Partly cloudy
Visibility: 10 miles , 16 km
Cloud details: Partly cloudy 2700 ft
2020/10/20 16:53 KDFW 201653Z 19015KT 10SM SCT027 28/21 A2999 RMK AO2 SLP150 T02780206
KDTO - Denton, Texas, USA
Distance from station: NNW 13mi, 21km
Updated: Tue, 20-Oct-2020 11:53am CDT
Clear
Clear
 Wind from S
Wind: S 12 mph , 19 km/h, Gust: 21 mph , 33 km/h
Temperature: 81°F , 27°C
Heat Index: 83°F , 28°C
Dew Point: 64°F , 18°C
Humidity: 58%
Barometer: 30.01 inHg , 1016.3 hPa
Clouds: Clear
Visibility: 10 miles , 16 km
2020/10/20 16:53 KDTO 201653Z 18010G18KT 10SM CLR 27/18 A3001 RMK AO2 SLP155 T02670183
 
KAFW - Ft Worth/Allianc, Texas, USA
Distance from station: WSW 14mi, 22km
Updated: Tue, 20-Oct-2020 12:09pm CDT
Mostly cloudy
Mostly cloudy
 Wind from S
Wind: S 21 mph , 33 km/h, Gust: 26 mph , 43 km/h
Temperature: 82°F , 28°C
Heat Index: 85°F , 29°C
Dew Point: 68°F , 20°C
Humidity: 62%
Barometer: 29.99 inHg , 1015.6 hPa
Clouds: Mostly cloudy
Visibility: 10 miles , 16 km
Cloud details: Mostly cloudy 2600 ft
Mostly cloudy 4500 ft
2020/10/20 17:09 KAFW 201709Z 18018G23KT 10SM BKN026 BKN045 28/20 A2999 RMK AO2 T02830200
KADS - Dallas/Addison, Texas, USA
Distance from station: ESE 17mi, 27km
Updated: Tue, 20-Oct-2020 12:47pm CDT
Mostly cloudy
Mostly cloudy
 Wind from S
Wind: S 7 mph , 11 km/h, Gust: 23 mph , 37 km/h
Temperature: 84°F , 29°C
Heat Index: 87°F , 31°C
Dew Point: 68°F , 20°C
Humidity: 58%
Barometer: 30.00 inHg , 1015.9 hPa
Clouds: Mostly cloudy
Visibility: 10 miles , 16 km
Cloud details: Partly cloudy 3200 ft
Mostly cloudy 4100 ft
2020/10/20 17:47 KADS 201747Z 19006G20KT 10SM SCT032 BKN041 29/20 A3000
 
KDAL - Dallas/Love Fld, Texas, USA
Distance from station: SE 19mi, 30km
Updated: Tue, 20-Oct-2020 11:53am CDT
Partly cloudy
Partly cloudy
 Wind from SSW
Wind: SSW 13 mph , 20 km/h
Temperature: 82°F , 28°C
Heat Index: 85°F , 29°C
Dew Point: 68°F , 20°C
Humidity: 62%
Barometer: 30.00 inHg , 1015.9 hPa
Clouds: Partly cloudy
Visibility: 10 miles , 16 km
Cloud details: Partly cloudy 2900 ft
2020/10/20 16:53 KDAL 201653Z 20011KT 10SM SCT029 28/20 A3000 RMK AO2 SLP154 SCT V BKN T02780200
KFTW - Fort Worth, Texas, USA
Distance from station: SW 21mi, 34km
Updated: Tue, 20-Oct-2020 12:37pm CDT
Mostly cloudy
Mostly cloudy
 Wind from S
Wind: S 14 mph , 22 km/h, Gust: 24 mph , 39 km/h
Temperature: 82°F , 28°C
Heat Index: 85°F , 29°C
Dew Point: 68°F , 20°C
Humidity: 62%
Barometer: 29.98 inHg , 1015.2 hPa
Clouds: Mostly cloudy
Visibility: 10 miles , 16 km
Cloud details: Partly cloudy 3000 ft
Partly cloudy 3600 ft
Mostly cloudy 4900 ft
2020/10/20 17:37 KFTW 201737Z 17012G21KT 10SM SCT030 SCT036 BKN049 28/20 A2998 RMK AO2 T02830200
 
KGPM - Grand Prairie, Texas, USA
Distance from station: S 23mi, 37km
Updated: Tue, 20-Oct-2020 11:50am CDT
Partly cloudy
Partly cloudy
 Wind from SSE
Wind: SSE 12 mph , 19 km/h, Gust: 17 mph , 28 km/h
Temperature: 82°F , 28°C
Heat Index: 84°F , 29°C
Dew Point: 66°F , 19°C
Humidity: 58%
Barometer: 30.02 inHg , 1016.6 hPa
Clouds: Partly cloudy
Visibility: 10 miles , 16 km
Cloud details: Partly cloudy 2700 ft
2020/10/20 16:50 KGPM 201650Z 16010G15KT 10SM SCT027 28/19 A3002
KGKY - Arlington, Texas, USA
Distance from station: S 25mi, 41km
Updated: Tue, 20-Oct-2020 11:53am CDT
Partly cloudy
Partly cloudy
 Wind from S
Wind: S 13 mph , 20 km/h, Gust: 24 mph , 39 km/h
Temperature: 84°F , 29°C
Heat Index: 87°F , 31°C
Dew Point: 68°F , 20°C
Humidity: 58%
Barometer: 30.00 inHg , 1015.9 hPa
Clouds: Partly cloudy
Visibility: 10 miles , 16 km
Cloud details: Few Clouds 3000 ft
Partly cloudy 3800 ft
2020/10/20 16:53 KGKY 201653Z 18011G21KT 10SM FEW030 SCT038 29/20 A3000 RMK AO2 SLP152 T02890200